createdAt,value
2023-02-13T00:06:56.414Z,0
2023-02-13T00:17:02.999Z,0
2023-02-13T00:27:09.600Z,0
2023-02-13T00:37:16.106Z,0
2023-02-13T00:47:22.725Z,0
2023-02-13T00:57:29.143Z,0
2023-02-13T01:07:35.920Z,0
2023-02-13T01:17:42.489Z,0
2023-02-13T01:27:49.229Z,0
2023-02-13T01:37:55.796Z,0
2023-02-13T01:48:02.360Z,0
2023-02-13T01:58:09.077Z,0
2023-02-13T02:08:15.600Z,0
2023-02-13T02:18:21.522Z,0
2023-02-13T02:28:27.968Z,0
2023-02-13T02:38:34.577Z,0
2023-02-13T02:48:41.187Z,0
2023-02-13T02:58:47.735Z,0
2023-02-13T03:08:54.297Z,0
2023-02-13T03:19:00.847Z,0
2023-02-13T03:29:07.485Z,0
2023-02-13T03:39:14.038Z,0
2023-02-13T03:49:20.633Z,0
2023-02-13T03:59:27.203Z,0
2023-02-13T04:09:33.842Z,0
2023-02-13T04:19:40.384Z,0
2023-02-13T04:29:46.260Z,0
2023-02-13T04:39:52.851Z,0
2023-02-13T04:49:59.454Z,0
2023-02-13T05:00:06.009Z,0
2023-02-13T05:10:12.560Z,0
2023-02-13T05:20:19.163Z,0
2023-02-13T05:30:25.733Z,0
2023-02-13T05:40:32.394Z,0
2023-02-13T05:50:38.938Z,0
2023-02-13T06:00:45.486Z,0
2023-02-13T06:10:52.138Z,0
2023-02-13T06:20:58.646Z,0
2023-02-13T06:31:05.108Z,5
2023-02-13T06:41:10.999Z,28
2023-02-13T06:51:17.487Z,61
2023-02-13T07:01:24.015Z,101
2023-02-13T07:11:30.411Z,236
2023-02-13T07:21:36.947Z,320
2023-02-13T07:31:43.723Z,247
2023-02-13T07:41:50.031Z,298
2023-02-13T07:51:56.688Z,376
2023-02-13T08:02:03.126Z,393
2023-02-13T08:12:09.612Z,438
2023-02-13T08:22:16.172Z,714
2023-02-13T08:32:22.712Z,534
2023-02-13T08:42:29.204Z,686
2023-02-13T08:52:35.102Z,1012
2023-02-13T09:02:41.681Z,1130
2023-02-13T09:12:48.054Z,1192
2023-02-13T09:22:54.589Z,1670
2023-02-13T09:33:01.162Z,1771
2023-02-13T09:43:07.827Z,2846
2023-02-13T09:53:14.297Z,3054
2023-02-13T10:03:20.816Z,3425
2023-02-13T10:13:27.337Z,3369
2023-02-13T10:23:33.866Z,3504
2023-02-13T10:33:40.385Z,3453
2023-02-13T10:43:46.935Z,3555
2023-02-13T10:53:53.525Z,3498
2023-02-13T11:03:59.312Z,3526
2023-02-13T11:14:05.129Z,3526
2023-02-13T11:24:11.656Z,3526
2023-02-13T11:34:18.187Z,3487
2023-02-13T11:44:24.900Z,3420
2023-02-13T11:54:31.245Z,3375
2023-02-13T12:04:37.782Z,3307
2023-02-13T12:14:44.319Z,3251
2023-02-13T12:24:51.007Z,3217
2023-02-13T12:34:57.594Z,3116
2023-02-13T12:45:03.981Z,3020
2023-02-13T12:55:10.472Z,1063
2023-02-13T13:05:17.096Z,2806
2023-02-13T13:15:23.503Z,2244
2023-02-13T13:25:29.423Z,2261
2023-02-13T13:35:36.010Z,1080
2023-02-13T13:45:42.321Z,506
2023-02-13T13:55:49.005Z,478
2023-02-13T14:05:55.343Z,472
2023-02-13T14:16:02.013Z,433
2023-02-13T14:26:08.521Z,410
2023-02-13T14:36:14.898Z,393
2023-02-13T14:46:21.599Z,382
2023-02-13T14:56:28.013Z,360
2023-02-13T15:06:34.533Z,326
2023-02-13T15:16:41.094Z,303
2023-02-13T15:26:47.599Z,275
2023-02-13T15:36:53.444Z,236
2023-02-13T15:46:59.923Z,202
2023-02-13T15:57:06.518Z,174
2023-02-13T16:07:13.026Z,129
2023-02-13T16:17:19.416Z,90
2023-02-13T16:27:25.932Z,56
2023-02-13T16:37:32.538Z,22
2023-02-13T16:47:39.064Z,5
2023-02-13T16:57:45.718Z,0
2023-02-13T17:07:52.128Z,0
2023-02-13T17:17:58.687Z,0
2023-02-13T17:28:05.349Z,0
2023-02-13T17:38:11.895Z,0
2023-02-13T17:48:17.801Z,0
2023-02-13T17:58:24.318Z,0
2023-02-13T18:08:30.849Z,0
2023-02-13T18:18:37.463Z,0
2023-02-13T18:28:44.027Z,0
2023-02-13T18:38:50.662Z,0
2023-02-13T18:48:57.281Z,0
2023-02-13T18:59:03.728Z,0
2023-02-13T19:09:10.437Z,0
2023-02-13T19:19:16.890Z,0
2023-02-13T19:29:23.470Z,0
2023-02-13T19:39:30.102Z,0
2023-02-13T19:49:36.671Z,0
2023-02-13T19:59:42.589Z,0
2023-02-13T20:09:49.080Z,0
2023-02-13T20:19:55.649Z,0
2023-02-13T20:30:02.406Z,0
2023-02-13T20:40:08.986Z,0
2023-02-13T20:50:15.655Z,0
2023-02-13T21:00:21.995Z,0
2023-02-13T21:10:28.602Z,0
2023-02-13T21:20:35.162Z,0
2023-02-13T21:30:41.899Z,0
2023-02-13T21:40:48.507Z,0
2023-02-13T21:50:55.092Z,0
2023-02-13T22:01:01.874Z,0
2023-02-13T22:11:07.733Z,0
2023-02-13T22:21:14.300Z,0
2023-02-13T22:31:20.888Z,0
2023-02-13T22:41:27.541Z,0
2023-02-13T22:51:34.110Z,0
2023-02-13T23:01:40.628Z,0
2023-02-13T23:11:47.216Z,0
2023-02-13T23:21:53.842Z,0
2023-02-13T23:32:00.379Z,0
2023-02-13T23:42:06.988Z,0
2023-02-13T23:52:13.566Z,0
